Time;durP1;ratioP1;P1;durP2;ratioP2;P2;SDS_P1;SDS_P2;PMS_P1;PMS_P2;Temp;Humidity;BMP_temperature;BMP_pressure;BME280_temperature;BME280_humidity;BME280_pressure;Samples;Min_cycle;Max_cycle;Signal;HPM_P1;HPM_P2
2022/01/09 00:00:15;;;;;;;0.40;0.40;;;;;;;0.05;94.31;98736.72;5063067;28;20037;-75
2022/01/09 00:02:40;;;;;;;0.40;0.40;;;;;;;0.06;94.53;98739.28;5062953;28;20027;-75
2022/01/09 00:05:07;;;;;;;0.50;0.50;;;;;;;0.11;94.68;98741.88;5063160;28;20025;-75
2022/01/09 00:07:32;;;;;;;0.50;0.50;;;;;;;0.11;94.69;98734.22;5065555;28;20044;-76
2022/01/09 00:09:58;;;;;;;0.40;0.40;;;;;;;0.16;94.20;98731.69;5067481;28;20103;-76
2022/01/09 00:12:24;;;;;;;0.45;0.45;;;;;;;0.10;94.32;98735.91;5067292;28;20086;-74
2022/01/09 00:14:51;;;;;;;0.50;0.50;;;;;;;0.08;94.42;98724.00;5049106;28;20024;-73
2022/01/09 00:17:16;;;;;;;0.50;0.50;;;;;;;0.10;94.28;98732.50;5067096;28;20025;-75
2022/01/09 00:19:42;;;;;;;0.40;0.40;;;;;;;0.06;94.13;98738.44;5066512;28;20417;-74
2022/01/09 00:22:07;;;;;;;0.50;0.50;;;;;;;0.04;94.12;98729.91;5066895;28;20032;-75
2022/01/09 00:24:33;;;;;;;0.50;0.50;;;;;;;0.03;94.10;98736.72;5066897;28;20108;-75
2022/01/09 00:26:59;;;;;;;0.50;0.50;;;;;;;0.04;93.91;98727.34;5066674;28;20056;-76
2022/01/09 00:29:24;;;;;;;0.50;0.50;;;;;;;-0.02;94.03;98725.63;5048724;28;20009;-74
2022/01/09 00:31:50;;;;;;;0.40;0.40;;;;;;;-0.01;93.94;98722.22;5066859;28;20076;-73
2022/01/09 00:34:15;;;;;;;0.50;0.50;;;;;;;-0.01;93.97;98710.31;5066609;28;20108;-76
2022/01/09 00:36:40;;;;;;;0.50;0.50;;;;;;;0.00;93.83;98721.38;5066718;28;20435;-73
2022/01/09 00:39:06;;;;;;;0.40;0.40;;;;;;;0.01;93.88;98715.44;5066542;28;20025;-74
2022/01/09 00:41:31;;;;;;;0.40;0.40;;;;;;;0.02;94.14;98718.84;5066630;28;20037;-73
2022/01/09 00:43:56;;;;;;;0.40;0.40;;;;;;;0.03;93.86;98716.31;5066642;28;20032;-73
2022/01/09 00:46:22;;;;;;;0.45;0.45;;;;;;;0.04;94.00;98710.34;5066311;28;20087;-73
2022/01/09 00:48:47;;;;;;;0.40;0.40;;;;;;;0.09;93.81;98712.94;5066445;28;20028;-73
2022/01/09 00:51:13;;;;;;;0.50;0.50;;;;;;;0.10;93.59;98706.97;5066771;28;20036;-75
2022/01/09 00:53:38;;;;;;;0.50;0.50;;;;;;;0.08;93.71;98704.41;5066407;28;20039;-73
2022/01/09 00:56:04;;;;;;;0.40;0.40;;;;;;;0.07;93.74;98712.06;5066245;28;20025;-74
2022/01/09 00:58:29;;;;;;;0.47;0.47;;;;;;;0.08;94.04;98718.88;5066192;28;20029;-74
2022/01/09 01:00:54;;;;;;;0.43;0.43;;;;;;;0.13;93.89;98721.47;5066472;28;20031;-73
2022/01/09 01:03:20;;;;;;;0.40;0.40;;;;;;;0.09;94.00;98718.03;5066278;28;20033;-74
2022/01/09 01:05:46;;;;;;;0.47;0.47;;;;;;;0.14;94.11;98718.06;5066195;28;20021;-73
2022/01/09 01:08:11;;;;;;;0.40;0.40;;;;;;;0.16;94.28;98719.78;5066278;28;20032;-75
2022/01/09 01:10:37;;;;;;;0.40;0.40;;;;;;;0.17;93.99;98724.06;5066114;28;20021;-74
2022/01/09 01:13:03;;;;;;;0.40;0.40;;;;;;;0.19;93.77;98707.03;5066223;28;20079;-76
2022/01/09 01:15:28;;;;;;;0.40;0.40;;;;;;;0.18;93.79;98714.66;5066106;28;20036;-74
2022/01/09 01:17:54;;;;;;;0.40;0.40;;;;;;;0.16;93.72;98714.66;5065191;28;20032;-74
2022/01/09 01:20:22;;;;;;;0.50;0.50;;;;;;;0.18;93.78;98710.44;5065352;28;20095;-74
2022/01/09 01:22:50;;;;;;;0.47;0.47;;;;;;;0.15;93.77;98694.25;5066188;28;20051;-74
2022/01/09 01:25:15;;;;;;;0.40;0.40;;;;;;;0.18;93.94;98704.47;5065877;28;20090;-76
2022/01/09 01:27:41;;;;;;;0.50;0.50;;;;;;;0.26;93.82;98713.03;5065987;28;20021;-76
2022/01/09 01:30:08;;;;;;;0.50;0.50;;;;;;;0.26;93.49;98709.66;5047895;28;20028;-77
2022/01/09 01:32:33;;;;;;;0.40;0.40;;;;;;;0.32;93.18;98723.28;5065677;28;20045;-78
2022/01/09 01:34:59;;;;;;;0.50;0.50;;;;;;;0.28;92.63;98706.25;5065602;28;20055;-77
2022/01/09 01:37:24;;;;;;;0.40;0.40;;;;;;;0.24;92.81;98705.38;5065700;28;20029;-77
2022/01/09 01:39:50;;;;;;;0.45;0.45;;;;;;;0.23;93.15;98706.22;5065409;28;20029;-75
2022/01/09 01:42:15;;;;;;;0.40;0.40;;;;;;;0.22;93.54;98709.59;5065419;28;20067;-75
2022/01/09 01:44:43;;;;;;;0.40;0.40;;;;;;;0.26;93.43;98704.53;5065733;28;20036;-74
2022/01/09 01:47:09;;;;;;;0.43;0.43;;;;;;;0.33;93.26;98699.47;5065296;28;20040;-76
2022/01/09 01:49:34;;;;;;;0.40;0.40;;;;;;;0.34;92.96;98713.06;5065496;28;20024;-77
2022/01/09 01:52:00;;;;;;;0.40;0.40;;;;;;;0.26;92.94;98699.44;5065447;28;20020;-75
2022/01/09 01:54:27;;;;;;;0.50;0.50;;;;;;;0.33;93.02;98698.63;5065175;28;20048;-75
2022/01/09 01:56:52;;;;;;;0.40;0.40;;;;;;;0.29;92.76;98705.38;5065346;28;20025;-74
2022/01/09 01:59:17;;;;;;;0.50;0.50;;;;;;;0.27;93.35;98709.66;5065616;28;20021;-75
2022/01/09 02:01:43;;;;;;;0.50;0.50;;;;;;;0.30;93.43;98706.25;5065453;28;20032;-73
2022/01/09 02:04:08;;;;;;;0.50;0.50;;;;;;;0.30;93.67;98694.34;5064884;28;20084;-75
2022/01/09 02:06:34;;;;;;;0.40;0.40;;;;;;;0.35;93.73;98699.47;5065513;28;20083;-77
2022/01/09 02:09:01;;;;;;;0.50;0.50;;;;;;;0.39;93.25;98690.13;5065232;28;20025;-77
2022/01/09 02:11:27;;;;;;;0.40;0.40;;;;;;;0.37;93.22;98705.44;5065245;28;20078;-76
2022/01/09 02:13:52;;;;;;;0.47;0.47;;;;;;;0.39;93.48;98701.19;5065343;28;20480;-75
2022/01/09 02:16:18;;;;;;;0.50;0.50;;;;;;;0.39;93.71;98698.66;5065463;28;20101;-76
2022/01/09 02:18:47;;;;;;;0.50;0.50;;;;;;;0.42;93.74;98701.22;5065312;28;20071;-75
2022/01/09 02:21:14;;;;;;;0.50;0.50;;;;;;;0.44;93.74;98694.41;5064945;28;20089;-74
2022/01/09 02:23:41;;;;;;;0.50;0.50;;;;;;;0.41;93.58;98696.97;5046841;28;20031;-75
2022/01/09 02:26:07;;;;;;;0.40;0.40;;;;;;;0.43;93.71;98704.63;5047225;28;20024;-75
2022/01/09 02:28:33;;;;;;;0.77;0.77;;;;;;;0.43;93.98;98690.13;5064799;28;20040;-75
2022/01/09 02:30:58;;;;;;;0.40;0.40;;;;;;;0.47;93.93;98696.13;5064399;28;20392;-74
2022/01/09 02:33:23;;;;;;;0.40;0.40;;;;;;;0.54;93.35;98697.88;5064812;28;20477;-75
2022/01/09 02:35:51;;;;;;;0.50;0.50;;;;;;;0.52;93.40;98698.69;5064499;28;20032;-73
2022/01/09 02:38:18;;;;;;;0.40;0.40;;;;;;;0.46;93.60;98686.78;5064205;28;20093;-73
2022/01/09 02:40:43;;;;;;;0.40;0.40;;;;;;;0.45;93.90;98685.91;5064351;28;20358;-74
2022/01/09 02:43:09;;;;;;;0.40;0.40;;;;;;;0.57;93.44;98686.81;5064397;28;20025;-75
2022/01/09 02:45:35;;;;;;;0.40;0.40;;;;;;;0.54;93.48;98686.81;5064451;28;20273;-74
2022/01/09 02:48:02;;;;;;;0.73;0.73;;;;;;;0.61;93.01;98684.28;5063779;28;20017;-74
2022/01/09 02:50:36;;;;;;;0.47;0.47;;;;;;;0.53;93.25;98680.84;5064239;28;20091;-73
2022/01/09 02:53:12;;;;;;;0.40;0.40;;;;;;;0.52;93.48;98683.38;5064463;28;20035;-73
2022/01/09 02:55:37;;;;;;;0.85;0.85;;;;;;;0.69;92.71;98666.44;5064390;28;20029;-75
2022/01/09 02:58:02;;;;;;;0.63;0.63;;;;;;;0.58;92.35;98679.16;5064233;28;20020;-73
2022/01/09 03:00:31;;;;;;;0.40;0.40;;;;;;;0.55;92.92;98683.38;5064087;28;20206;-74
2022/01/09 03:02:57;;;;;;;0.50;0.50;;;;;;;0.47;93.33;98679.13;5063845;28;20024;-73
2022/01/09 03:05:24;;;;;;;0.40;0.40;;;;;;;0.63;92.84;98688.53;5064120;28;20063;-75
2022/01/09 03:07:50;;;;;;;0.40;0.40;;;;;;;0.52;92.99;98683.38;5063841;28;20025;-74
2022/01/09 03:10:17;;;;;;;0.50;0.50;;;;;;;0.52;92.91;98683.38;5063839;28;20044;-74
2022/01/09 03:12:43;;;;;;;0.60;0.60;;;;;;;0.55;93.27;98680.84;5063674;28;20512;-73
2022/01/09 03:15:09;;;;;;;0.40;0.40;;;;;;;0.52;93.09;98678.28;5063757;28;20021;-73
2022/01/09 03:17:35;;;;;;;0.50;0.50;;;;;;;0.56;92.52;98674.91;5063773;28;20025;-73
2022/01/09 03:20:03;;;;;;;0.40;0.40;;;;;;;0.47;93.15;98686.78;5063548;28;20029;-73
2022/01/09 03:22:28;;;;;;;0.50;0.50;;;;;;;0.61;91.86;98681.72;5063711;28;20025;-74
2022/01/09 03:24:54;;;;;;;0.50;0.50;;;;;;;0.51;91.98;98674.03;5063879;28;20017;-75
2022/01/09 03:27:19;;;;;;;0.50;0.50;;;;;;;0.42;92.66;98685.88;5063611;28;20432;-74
2022/01/09 03:29:44;;;;;;;0.40;0.40;;;;;;;0.42;92.58;98682.47;5063542;28;20049;-75
2022/01/09 03:32:10;;;;;;;0.40;0.40;;;;;;;0.43;92.53;98677.38;5063301;28;20037;-74
2022/01/09 03:34:36;;;;;;;0.40;0.40;;;;;;;0.42;92.67;98692.69;5063600;28;20059;-73
2022/01/09 03:37:03;;;;;;;0.43;0.43;;;;;;;0.46;92.46;98674.00;5063591;28;20017;-75
2022/01/09 03:39:28;;;;;;;0.40;0.40;;;;;;;0.38;92.84;98676.53;5063305;28;20599;-73
2022/01/09 03:41:56;;;;;;;0.40;0.40;;;;;;;0.35;92.87;98679.91;5062734;28;20029;-74
2022/01/09 03:44:21;;;;;;;0.40;0.40;;;;;;;0.39;92.97;98677.34;5063283;28;20028;-74
2022/01/09 03:46:47;;;;;;;0.40;0.40;;;;;;;0.31;92.77;98674.75;5063161;28;20531;-74
2022/01/09 03:49:12;;;;;;;0.40;0.40;;;;;;;0.36;92.95;98678.19;5063116;28;20088;-74
2022/01/09 03:51:38;;;;;;;0.40;0.40;;;;;;;0.36;92.43;98675.66;5063331;28;20024;-75
2022/01/09 03:54:05;;;;;;;0.40;0.40;;;;;;;0.38;92.65;98680.75;5063355;28;20063;-74
2022/01/09 03:56:30;;;;;;;0.40;0.40;;;;;;;0.35;92.28;98663.75;5063242;28;20434;-75
2022/01/09 03:58:56;;;;;;;0.40;0.40;;;;;;;0.42;91.93;98678.22;5063094;28;20040;-75
2022/01/09 04:01:21;;;;;;;0.50;0.50;;;;;;;0.55;91.47;98683.38;5063288;28;20104;-76
2022/01/09 04:03:47;;;;;;;0.60;0.60;;;;;;;0.47;91.19;98685.91;5062990;28;20041;-74
2022/01/09 04:06:12;;;;;;;0.60;0.60;;;;;;;0.53;91.06;98680.00;5062971;28;20029;-76
2022/01/09 04:08:38;;;;;;;0.50;0.50;;;;;;;0.34;91.73;98687.53;5062966;28;20024;-74
2022/01/09 04:11:05;;;;;;;0.40;0.40;;;;;;;0.34;92.32;98695.19;5063364;28;20083;-77
2022/01/09 04:13:30;;;;;;;0.50;0.50;;;;;;;0.31;92.32;98674.75;5062826;28;20146;-74
2022/01/09 04:15:56;;;;;;;0.40;0.40;;;;;;;0.34;92.17;98685.00;5063120;28;20047;-74
2022/01/09 04:18:23;;;;;;;0.50;0.50;;;;;;;0.28;92.48;98692.63;5062661;28;20040;-74
2022/01/09 04:20:50;;;;;;;0.43;0.43;;;;;;;0.29;92.75;98691.78;5063122;28;20078;-74
2022/01/09 04:23:17;;;;;;;0.45;0.45;;;;;;;0.43;92.67;98686.75;5063066;28;20100;-79
2022/01/09 04:25:44;;;;;;;0.40;0.40;;;;;;;0.41;91.89;98689.31;5063062;28;20027;-75
2022/01/09 04:28:10;;;;;;;0.50;0.50;;;;;;;0.20;91.99;98673.03;5062628;28;20017;-74
2022/01/09 04:30:36;;;;;;;0.50;0.50;;;;;;;0.38;92.10;98690.97;5062892;28;20017;-75
2022/01/09 04:33:01;;;;;;;0.40;0.40;;;;;;;0.31;92.31;98690.09;5062564;28;20088;-75
2022/01/09 04:35:27;;;;;;;0.40;0.40;;;;;;;0.32;92.33;98682.44;5062881;28;20036;-76
2022/01/09 04:37:53;;;;;;;0.45;0.45;;;;;;;0.36;92.54;98698.63;5062807;28;20032;-74
2022/01/09 04:40:20;;;;;;;0.40;0.40;;;;;;;0.39;92.13;98683.31;5062858;28;20121;-75
2022/01/09 04:42:50;;;;;;;0.50;0.50;;;;;;;0.38;92.05;98694.41;5062934;28;20047;-77
2022/01/09 04:45:17;;;;;;;0.43;0.43;;;;;;;0.43;91.72;98697.81;5062890;28;20095;-77
2022/01/09 04:47:47;;;;;;;0.50;0.50;;;;;;;0.37;91.88;98702.88;5062766;28;20035;-74
2022/01/09 04:50:18;;;;;;;0.50;0.50;;;;;;;0.33;92.33;98704.59;5062841;28;20492;-76
2022/01/09 04:52:44;;;;;;;0.60;0.60;;;;;;;0.42;92.07;98708.00;5063643;28;20020;-78
2022/01/09 04:55:10;;;;;;;0.50;0.50;;;;;;;0.32;92.30;98686.69;5048383;28;20114;-79
2022/01/09 04:57:35;;;;;;;0.40;0.40;;;;;;;0.35;92.00;98700.31;5066292;28;20427;-77
2022/01/09 05:00:03;;;;;;;0.50;0.50;;;;;;;0.34;92.13;98702.84;5066262;28;20076;-76
2022/01/09 05:02:28;;;;;;;0.40;0.40;;;;;;;0.37;91.67;98707.97;5066348;28;20086;-76
2022/01/09 05:04:54;;;;;;;1.05;1.05;;;;;;;0.34;92.00;98710.53;5048005;28;20495;-76
2022/01/09 05:07:19;;;;;;;0.50;0.50;;;;;;;0.45;91.35;98698.66;5066327;28;20035;-78
2022/01/09 05:09:45;;;;;;;0.50;0.50;;;;;;;0.36;91.62;98714.81;5066081;28;20021;-77
2022/01/09 05:12:10;;;;;;;0.50;0.50;;;;;;;0.38;91.47;98707.16;5066006;28;20035;-75
2022/01/09 05:14:35;;;;;;;0.40;0.40;;;;;;;0.48;90.84;98726.78;5048013;28;20032;-78
2022/01/09 05:17:01;;;;;;;0.50;0.50;;;;;;;0.38;91.37;98717.38;5066052;28;20028;-77
2022/01/09 05:19:31;;;;;;;0.50;0.50;;;;;;;0.29;91.52;98714.75;5065793;28;20025;-77
2022/01/09 05:21:57;;;;;;;0.43;0.43;;;;;;;0.45;90.82;98716.53;5066290;28;20040;-78
2022/01/09 05:24:23;;;;;;;0.60;0.60;;;;;;;0.46;90.03;98717.41;5065959;28;20100;-77
2022/01/09 05:26:49;;;;;;;0.50;0.50;;;;;;;0.42;90.16;98724.19;5066042;28;20089;-76
2022/01/09 05:29:14;;;;;;;0.40;0.40;;;;;;;0.50;89.89;98711.47;5065902;28;20045;-79
2022/01/09 05:31:40;;;;;;;0.50;0.50;;;;;;;0.46;89.84;98720.78;5065789;28;20068;-77
2022/01/09 05:34:06;;;;;;;0.40;0.40;;;;;;;0.38;90.44;98722.47;5065764;28;20513;-75
2022/01/09 05:36:32;;;;;;;0.50;0.50;;;;;;;0.41;90.67;98727.59;5066059;28;20025;-77
2022/01/09 05:38:58;;;;;;;0.47;0.47;;;;;;;0.44;90.56;98731.84;5065655;28;20071;-77
2022/01/09 05:41:23;;;;;;;1.35;1.27;;;;;;;0.39;90.65;98731.84;5065799;28;20021;-77
2022/01/09 05:43:49;;;;;;;0.50;0.50;;;;;;;0.34;90.91;98746.25;5065894;28;20038;-74
2022/01/09 05:46:14;;;;;;;0.50;0.50;;;;;;;0.34;90.98;98736.06;5065546;28;20120;-77
2022/01/09 05:48:40;;;;;;;0.50;0.50;;;;;;;0.31;91.25;98730.94;5064092;28;20017;-76
2022/01/09 05:51:05;;;;;;;0.50;0.50;;;;;;;0.39;90.74;98728.41;5065616;28;20025;-76
2022/01/09 05:53:30;;;;;;;0.40;0.40;;;;;;;0.34;90.25;98726.69;5065479;28;20465;-75
2022/01/09 05:55:56;;;;;;;0.50;0.50;;;;;;;0.42;90.31;98731.84;5065541;28;20021;-78
2022/01/09 05:58:21;;;;;;;0.50;0.50;;;;;;;0.52;89.51;98744.66;5065251;28;20021;-77
2022/01/09 06:00:46;;;;;;;0.50;0.50;;;;;;;0.45;89.61;98752.28;5065571;28;20029;-75
2022/01/09 06:03:12;;;;;;;0.50;0.50;;;;;;;0.41;89.18;98725.03;5065415;28;20112;-77
2022/01/09 06:05:37;;;;;;;0.50;0.50;;;;;;;0.56;88.76;98737.03;5064861;28;20017;-75
2022/01/09 06:08:03;;;;;;;0.40;0.40;;;;;;;0.45;88.76;98729.31;5065811;28;20021;-79
2022/01/09 06:10:28;;;;;;;0.52;0.52;;;;;;;0.41;89.03;98735.25;5065316;28;20039;-76
2022/01/09 06:12:53;;;;;;;5.93;3.13;;;;;;;0.54;88.75;98725.09;5065683;28;20029;-79
2022/01/09 06:15:19;;;;;;;12.93;6.10;;;;;;;0.40;89.32;98738.63;5065140;28;20028;-75
2022/01/09 06:17:44;;;;;;;10.75;5.63;;;;;;;0.39;89.53;98734.38;5065141;28;20032;-74
2022/01/09 06:20:12;;;;;;;6.40;2.97;;;;;;;0.48;89.44;98739.53;5064991;28;20025;-75
2022/01/09 06:22:39;;;;;;;5.93;3.38;;;;;;;0.42;89.72;98744.63;5065076;28;20190;-75
2022/01/09 06:25:05;;;;;;;6.80;2.47;;;;;;;0.41;89.88;98744.59;5065070;28;20028;-76
2022/01/09 06:27:31;;;;;;;7.60;4.20;;;;;;;0.45;89.77;98749.75;5065026;28;20090;-71
2022/01/09 06:29:57;;;;;;;8.55;4.80;;;;;;;0.31;90.04;98731.78;5064930;28;20037;-75
2022/01/09 06:32:22;;;;;;;12.55;4.13;;;;;;;0.40;90.04;98748.84;5064587;28;20048;-74
2022/01/09 06:34:48;;;;;;;15.23;4.93;;;;;;;0.57;88.48;98737.88;5064755;28;20039;-75
2022/01/09 06:37:13;;;;;;;5.97;3.88;;;;;;;0.55;88.69;98745.53;5064663;28;20021;-78
2022/01/09 06:39:43;;;;;;;10.00;5.25;;;;;;;0.56;88.03;98757.47;5064286;28;20049;-74
2022/01/09 06:42:08;;;;;;;6.50;4.05;;;;;;;0.46;88.68;98753.16;5064436;28;20100;-75
2022/01/09 06:44:34;;;;;;;9.32;4.47;;;;;;;0.51;88.39;98748.94;5046072;28;20025;-74
2022/01/09 06:47:00;;;;;;;5.38;3.45;;;;;;;0.47;88.91;98753.16;5064077;28;20028;-75
2022/01/09 06:49:25;;;;;;;8.63;4.05;;;;;;;0.42;89.13;98743.75;5045824;28;20024;-76
2022/01/09 06:51:51;;;;;;;9.57;4.25;;;;;;;0.53;88.64;98738.72;5064010;28;20029;-75
2022/01/09 06:54:16;;;;;;;9.40;4.47;;;;;;;0.46;89.08;98745.50;5063740;28;20519;-74
2022/01/09 06:56:42;;;;;;;10.60;5.50;;;;;;;0.58;87.91;98737.91;5063832;28;20032;-75
2022/01/09 06:59:08;;;;;;;11.38;4.22;;;;;;;0.53;88.37;98748.94;5063249;28;20077;-78
2022/01/09 07:01:33;;;;;;;6.35;3.95;;;;;;;0.83;86.35;98755.88;5063562;28;20035;-77
2022/01/09 07:03:58;;;;;;;6.60;3.92;;;;;;;0.69;86.33;98749.84;5063305;28;20029;-77
2022/01/09 07:06:24;;;;;;;11.63;5.47;;;;;;;0.46;87.63;98764.22;5045571;28;20028;-74
2022/01/09 07:08:49;;;;;;;4.88;3.65;;;;;;;0.87;86.20;98756.75;5063537;28;20477;-77
2022/01/09 07:11:14;;;;;;;6.25;3.92;;;;;;;0.68;86.74;98759.25;5063501;28;20031;-77
2022/01/09 07:13:40;;;;;;;14.15;5.70;;;;;;;0.59;87.42;98774.53;5063300;28;20025;-75
2022/01/09 07:16:05;;;;;;;8.30;3.65;;;;;;;0.79;86.98;98768.66;5062628;28;20055;-78
2022/01/09 07:18:31;;;;;;;11.98;3.53;;;;;;;0.60;87.77;98791.53;5062861;28;20036;-76
2022/01/09 07:20:57;;;;;;;6.60;3.38;;;;;;;0.71;87.46;98784.81;5063293;28;20025;-75
2022/01/09 07:23:23;;;;;;;8.45;4.25;;;;;;;0.71;87.13;98786.50;5063302;28;20032;-76
2022/01/09 07:25:48;;;;;;;13.50;5.53;;;;;;;0.60;86.81;98763.44;5063199;28;20021;-75
2022/01/09 07:28:13;;;;;;;6.13;4.57;;;;;;;0.59;87.97;98785.56;5063126;28;20512;-76
2022/01/09 07:30:39;;;;;;;7.15;4.57;;;;;;;0.58;88.21;98793.22;5063164;28;20027;-76
2022/01/09 07:33:05;;;;;;;9.55;4.32;;;;;;;0.55;88.56;98783.00;5062369;28;20285;-76
2022/01/09 07:35:31;;;;;;;5.45;2.83;;;;;;;0.76;86.99;98795.03;5045359;28;20064;-74
2022/01/09 07:37:56;;;;;;;14.23;4.85;;;;;;;0.66;87.58;98800.94;5063077;28;20079;-76
2022/01/09 07:40:22;;;;;;;10.32;4.35;;;;;;;0.61;88.11;98791.53;5044859;28;20021;-77
2022/01/09 07:42:48;;;;;;;6.85;3.05;;;;;;;0.48;88.30;98777.84;5045011;28;20030;-76
2022/01/09 07:45:15;;;;;;;7.95;4.25;;;;;;;0.53;88.34;98793.19;5062877;28;20020;-74
2022/01/09 07:47:44;;;;;;;14.07;6.47;;;;;;;0.69;87.10;98796.69;5062742;28;20028;-75
2022/01/09 07:50:10;;;;;;;9.45;5.13;;;;;;;0.60;88.00;98794.97;5044449;28;20045;-79
2022/01/09 07:52:37;;;;;;;14.13;7.03;;;;;;;0.63;87.85;98796.66;5062999;28;20028;-75
2022/01/09 07:55:04;;;;;;;9.35;5.32;;;;;;;0.60;88.16;98800.06;5062731;28;20100;-76
2022/01/09 07:57:30;;;;;;;7.07;4.25;;;;;;;0.68;88.03;98807.78;5062564;28;20021;-75
2022/01/09 07:59:56;;;;;;;15.25;5.55;;;;;;;0.72;87.67;98829.94;5062698;28;20065;-74
2022/01/09 08:02:22;;;;;;;6.95;3.75;;;;;;;0.76;87.97;98824.84;5044842;28;20473;-77
2022/01/09 08:04:48;;;;;;;8.45;4.55;;;;;;;0.63;88.28;98814.53;5062836;28;20074;-74
2022/01/09 08:07:14;;;;;;;11.45;4.40;;;;;;;0.64;88.66;98811.13;5062974;28;20094;-78
2022/01/09 08:09:40;;;;;;;10.73;5.20;;;;;;;0.94;85.49;98824.09;5062895;28;20427;-76
2022/01/09 08:12:08;;;;;;;6.82;4.55;;;;;;;0.82;86.66;98827.41;5062675;28;20033;-78
2022/01/09 08:14:34;;;;;;;13.35;6.38;;;;;;;0.60;87.49;98833.28;5063082;28;20029;-75
2022/01/09 08:17:02;;;;;;;8.30;4.38;;;;;;;0.93;86.76;98832.59;5063130;28;20032;-81
2022/01/09 08:19:30;;;;;;;11.85;4.30;;;;;;;0.66;87.44;98832.44;5062618;28;20713;-77
2022/01/09 08:21:56;;;;;;;12.88;5.18;;;;;;;0.64;87.99;98834.13;5044685;28;20055;-76
2022/01/09 08:24:21;;;;;;;8.50;4.43;;;;;;;0.78;87.54;98843.59;5063068;28;20404;-76
2022/01/09 08:26:50;;;;;;;5.72;3.65;;;;;;;0.69;87.70;98835.00;5062988;28;20055;-79
2022/01/09 08:29:16;;;;;;;6.93;3.40;;;;;;;0.71;87.19;98817.16;5066145;28;20532;-79
2022/01/09 08:31:45;;;;;;;11.48;6.07;;;;;;;0.83;86.96;98854.69;5048841;28;20071;-74
2022/01/09 08:34:10;;;;;;;14.73;7.05;;;;;;;0.61;87.48;98837.53;5048634;28;20024;-75
2022/01/09 08:36:37;;;;;;;12.43;4.82;;;;;;;0.78;87.43;98861.47;5048658;28;20032;-72
2022/01/09 08:39:04;;;;;;;7.30;3.83;;;;;;;0.85;87.14;98855.53;5066446;28;20040;-77
2022/01/09 08:41:37;;;;;;;14.13;6.43;;;;;;;0.75;87.41;98854.66;5066900;28;20532;-75
2022/01/09 08:44:04;;;;;;;12.68;5.00;;;;;;;0.73;87.25;98856.34;5048768;28;20025;-74
2022/01/09 08:46:30;;;;;;;8.57;3.58;;;;;;;0.77;87.57;98868.28;5048645;28;20029;-73
2022/01/09 08:49:00;;;;;;;5.45;3.13;;;;;;;0.65;87.74;98851.19;5048316;28;20032;-74
2022/01/09 08:51:27;;;;;;;14.15;5.45;;;;;;;0.82;87.56;98865.75;5066460;28;20017;-74
2022/01/09 08:53:53;;;;;;;16.65;5.82;;;;;;;0.45;87.59;98831.44;5048069;28;20025;-75
2022/01/09 08:56:33;;;;;;;11.50;6.32;;;;;;;0.32;87.89;98809.25;5065838;28;20035;-75
2022/01/09 08:59:01;;;;;;;10.75;4.30;;;;;;;0.53;87.98;98828.94;5066287;28;20027;-75
2022/01/09 09:01:26;;;;;;;15.35;7.20;;;;;;;0.42;87.58;98811.00;5066346;28;20024;-74
2022/01/09 09:03:52;;;;;;;20.17;7.35;;;;;;;0.60;88.19;98863.91;5066021;28;20036;-74
2022/01/09 09:06:17;;;;;;;11.45;5.97;;;;;;;0.33;88.19;98798.19;5066041;28;20028;-74
2022/01/09 09:08:43;;;;;;;13.90;6.22;;;;;;;0.74;88.28;98866.56;5048064;28;20055;-75
2022/01/09 09:11:11;;;;;;;6.30;3.45;;;;;;;0.71;88.25;98866.53;5065866;28;20031;-76
2022/01/09 09:13:38;;;;;;;5.78;3.65;;;;;;;0.85;87.33;98883.66;5065682;28;20388;-76
2022/01/09 09:16:04;;;;;;;12.30;6.20;;;;;;;0.82;86.86;98874.28;5066001;28;20538;-77
2022/01/09 09:18:29;;;;;;;15.68;6.32;;;;;;;0.68;87.36;98863.09;5065159;28;20474;-73
2022/01/09 09:20:56;;;;;;;8.85;5.78;;;;;;;0.69;88.18;98883.56;5065672;28;20025;-76
2022/01/09 09:23:21;;;;;;;8.30;4.43;;;;;;;0.84;87.89;98884.50;5065600;28;20021;-75
2022/01/09 09:25:47;;;;;;;6.57;4.47;;;;;;;0.80;87.17;98878.50;5065621;28;20071;-74
2022/01/09 09:28:13;;;;;;;14.52;6.97;;;;;;;0.60;88.10;98878.38;5047277;28;20017;-73
2022/01/09 09:30:38;;;;;;;16.00;6.82;;;;;;;0.46;89.01;98874.00;5065612;28;20023;-75
2022/01/09 09:33:05;;;;;;;13.98;5.78;;;;;;;0.80;88.28;98890.44;5046891;28;20420;-75
2022/01/09 09:35:31;;;;;;;9.10;5.25;;;;;;;0.72;88.24;98883.56;5065130;28;20071;-73
2022/01/09 09:37:56;;;;;;;14.80;4.80;;;;;;;0.65;88.18;98873.31;5065310;28;20021;-73
2022/01/09 09:40:22;;;;;;;9.57;4.57;;;;;;;0.84;87.50;98897.28;5064097;28;20084;-73
2022/01/09 09:42:47;;;;;;;4.72;3.55;;;;;;;0.74;88.08;98898.91;5065279;28;20037;-74
2022/01/09 09:45:13;;;;;;;11.40;5.78;;;;;;;0.64;88.77;98905.63;5047322;28;20024;-75
2022/01/09 09:47:40;;;;;;;5.35;3.15;;;;;;;0.65;88.91;98906.50;5065057;28;20036;-75
2022/01/09 09:50:08;;;;;;;11.43;3.33;;;;;;;0.72;88.76;98906.56;5065031;28;20046;-75
2022/01/09 09:52:34;;;;;;;10.10;5.03;;;;;;;0.60;88.69;98891.16;5065367;28;20025;-76
2022/01/09 09:55:00;;;;;;;14.60;5.38;;;;;;;0.76;88.07;98898.91;5065236;28;20028;-76
2022/01/09 09:57:27;;;;;;;7.18;4.63;;;;;;;0.66;88.49;98923.53;5064976;28;20029;-78
2022/01/09 10:00:10;;;;;;;19.98;7.18;;;;;;;0.59;88.83;98917.53;5064993;28;20052;-76
2022/01/09 10:02:45;;;;;;;10.77;5.97;;;;;;;0.57;88.98;98909.88;5064969;28;20068;-77
2022/01/09 10:05:12;;;;;;;6.95;4.15;;;;;;;0.79;88.05;98909.16;5064653;28;20108;-76
2022/01/09 10:07:38;;;;;;;14.20;7.25;;;;;;;0.68;88.32;98919.31;5064725;28;20054;-75
2022/01/09 10:10:08;;;;;;;10.95;6.45;;;;;;;0.61;89.04;98928.59;5064883;28;20089;-75
2022/01/09 10:12:34;;;;;;;8.63;6.15;;;;;;;0.65;88.94;98915.03;5064816;28;20071;-77
2022/01/09 10:15:03;;;;;;;6.82;3.42;;;;;;;0.89;87.67;98918.63;5064740;28;20028;-77
2022/01/09 10:17:30;;;;;;;8.30;4.93;;;;;;;0.61;88.90;98920.94;5064637;28;20021;-75
2022/01/09 10:20:15;;;;;;;9.85;5.63;;;;;;;0.64;89.09;98932.91;5064506;28;20025;-76
2022/01/09 10:22:49;;;;;;;11.45;5.45;;;;;;;0.63;89.01;98926.94;5046664;28;20040;-76
2022/01/09 10:25:17;;;;;;;11.07;7.22;;;;;;;0.60;89.23;98932.00;5064481;28;20025;-74
2022/01/09 10:27:44;;;;;;;6.57;4.07;;;;;;;0.55;89.53;98943.88;5064419;28;20503;-77
2022/01/09 10:30:10;;;;;;;6.93;4.50;;;;;;;0.39;89.91;98910.56;5046101;28;20024;-78
2022/01/09 10:32:35;;;;;;;9.10;4.63;;;;;;;0.63;88.93;98947.38;5064496;28;20098;-76
2022/01/09 10:35:10;;;;;;;10.45;4.47;;;;;;;0.61;89.38;98928.59;5064281;28;20056;-75
2022/01/09 10:37:37;;;;;;;13.30;6.18;;;;;;;0.35;89.90;98921.59;5064021;28;20043;-75
2022/01/09 10:40:05;;;;;;;8.43;3.20;;;;;;;0.45;89.69;98925.94;5046341;28;20115;-78
2022/01/09 10:42:32;;;;;;;13.60;7.13;;;;;;;0.34;90.52;98936.03;5064278;28;20047;-78
2022/01/09 10:45:15;;;;;;;12.55;7.85;;;;;;;0.43;90.15;98942.94;5064012;28;20024;-71
2022/01/09 10:47:40;;;;;;;20.95;7.53;;;;;;;0.46;90.04;98937.00;5063868;28;20017;-75
2022/01/09 10:50:22;;;;;;;10.85;6.93;;;;;;;0.49;89.63;98937.91;5063620;28;20082;-74
2022/01/09 10:52:48;;;;;;;;;;;;;;;0.49;90.38;98940.44;5064314;28;20373;-71
2022/01/09 10:55:13;;;;;;;10.77;5.88;;;;;;;0.39;90.51;98959.06;5063582;28;19908;-73
2022/01/09 10:57:40;;;;;;;7.68;4.18;;;;;;;0.33;90.89;98946.25;5063649;28;20060;-73
2022/01/09 11:00:13;;;;;;;16.20;4.75;;;;;;;0.29;91.41;98967.50;5063687;28;20036;-72
2022/01/09 11:02:39;;;;;;;14.63;6.90;;;;;;;0.15;91.56;98924.81;5063881;28;20098;-70
2022/01/09 11:05:05;;;;;;;5.45;3.00;;;;;;;0.42;90.44;98936.13;5063563;28;20033;-69
2022/01/09 11:07:31;;;;;;;8.65;6.05;;;;;;;0.38;90.34;98971.81;5063512;28;20021;-71
2022/01/09 11:09:58;;;;;;;16.00;7.40;;;;;;;0.30;91.15;98969.19;5063912;28;20036;-67
2022/01/09 11:12:31;;;;;;;8.68;4.82;;;;;;;0.31;91.10;98970.91;5063532;28;20033;-70
2022/01/09 11:15:00;;;;;;;14.52;6.63;;;;;;;0.32;90.80;98967.53;5063661;28;20059;-68
2022/01/09 11:17:27;;;;;;;9.82;5.13;;;;;;;0.27;91.37;98964.06;5063052;28;20076;-69
2022/01/09 11:19:52;;;;;;;5.43;3.30;;;;;;;0.23;91.75;98961.47;5045122;28;20021;-68
2022/01/09 11:22:19;;;;;;;22.13;10.23;;;;;;;0.15;91.99;98988.59;5063377;28;20024;-69
2022/01/09 11:25:10;;;;;;;10.45;4.50;;;;;;;0.21;91.66;98964.84;5045179;28;20039;-69
2022/01/09 11:27:55;;;;;;;7.68;4.28;;;;;;;0.36;91.53;98987.13;5063379;28;20141;-68
2022/01/09 11:30:45;;;;;;;12.65;6.82;;;;;;;0.22;91.48;98987.81;5063401;28;20052;-69
2022/01/09 11:33:35;;;;;;;10.07;6.05;;;;;;;0.12;91.99;98996.22;5063045;28;20277;-70
2022/01/09 11:36:17;;;;;;;9.93;4.70;;;;;;;0.10;92.13;99003.88;5063465;28;20613;-71